createdAt,value
2023-07-25T00:03:06.180Z,69.74
2023-07-25T00:08:08.545Z,69.58
2023-07-25T00:13:11.324Z,69.76
2023-07-25T00:18:13.541Z,69.48
2023-07-25T00:23:15.646Z,70.33
2023-07-25T00:28:23.608Z,70.64
2023-07-25T00:33:25.689Z,70.95
2023-07-25T00:38:29.605Z,71.36
2023-07-25T00:43:33.116Z,71.58
2023-07-25T00:48:35.240Z,71.88
2023-07-25T00:53:41.516Z,71.88
2023-07-25T00:58:44.187Z,72.15
2023-07-25T01:05:16.999Z,72.50
2023-07-25T01:10:24.710Z,72.84
2023-07-25T01:15:31.277Z,72.63
2023-07-25T01:20:36.132Z,72.95
2023-07-25T01:25:45.271Z,72.82
2023-07-25T01:30:49.438Z,73.11
2023-07-25T01:35:53.524Z,73.74
2023-07-25T01:40:56.196Z,73.74
2023-07-25T01:45:58.785Z,73.85
2023-07-25T01:51:00.945Z,74.43
2023-07-25T01:56:04.377Z,74.84
2023-07-25T02:01:18.561Z,75.01
2023-07-25T02:06:23.888Z,75.64
2023-07-25T02:11:25.967Z,75.49
2023-07-25T02:16:30.902Z,75.67
2023-07-25T02:21:33.410Z,75.89
2023-07-25T02:26:37.435Z,76.38
2023-07-25T02:31:40.200Z,75.84
2023-07-25T02:36:42.656Z,75.71
2023-07-25T02:41:55.819Z,75.70
2023-07-25T02:46:57.779Z,75.27
2023-07-25T02:51:59.939Z,75.20
2023-07-25T02:57:10.360Z,75.10
2023-07-25T03:02:13.426Z,75.28
2023-07-25T03:07:16.068Z,75.37
2023-07-25T03:12:19.817Z,75.24
2023-07-25T03:17:22.364Z,75.04
2023-07-25T03:22:28.774Z,74.80
2023-07-25T03:27:36.431Z,74.50
2023-07-25T03:32:39.547Z,73.83
2023-07-25T03:37:42.689Z,73.50
2023-07-25T03:42:45.471Z,73.25
2023-07-25T03:47:49.016Z,73.00
2023-07-25T03:53:08.963Z,72.63
2023-07-25T03:58:13.273Z,72.54
2023-07-25T04:04:12.632Z,72.09
2023-07-25T04:09:25.410Z,72.08
2023-07-25T04:14:27.488Z,71.90
2023-07-25T04:19:29.777Z,72.06
2023-07-25T04:24:41.755Z,72.29
2023-07-25T04:29:50.053Z,72.28
2023-07-25T04:34:52.675Z,72.57
2023-07-25T04:40:00.275Z,71.61
2023-07-25T04:45:08.882Z,71.42
2023-07-25T04:50:12.088Z,71.49
2023-07-25T04:55:23.714Z,71.46
2023-07-25T05:00:33.399Z,71.46
2023-07-25T05:05:42.293Z,71.59
2023-07-25T05:10:44.878Z,71.30
2023-07-25T05:15:49.560Z,71.09
2023-07-25T05:20:53.550Z,63.97
2023-07-25T05:26:00.420Z,59.70
2023-07-25T05:31:12.620Z,56.36
2023-07-25T05:36:21.077Z,54.62
2023-07-25T05:41:25.919Z,53.75
2023-07-25T05:46:28.006Z,52.48
2023-07-25T05:51:33.762Z,51.64
2023-07-25T05:56:44.796Z,48.63
2023-07-25T06:01:47.670Z,49.75
2023-07-25T06:06:49.977Z,49.51
2023-07-25T06:11:52.292Z,49.00
2023-07-25T06:16:55.624Z,47.79
2023-07-25T06:22:00.826Z,46.72
2023-07-25T06:27:09.535Z,46.09
2023-07-25T06:32:14.193Z,46.73
2023-07-25T06:37:16.358Z,46.66
2023-07-25T06:42:21.501Z,46.44
2023-07-25T06:47:29.114Z,45.63
2023-07-25T06:52:50.887Z,42.63
2023-07-25T06:57:53.074Z,45.41
2023-07-25T07:03:01.756Z,45.12
2023-07-25T07:08:12.020Z,44.64
2023-07-25T07:13:14.173Z,44.36
2023-07-25T07:18:16.192Z,43.05
2023-07-25T07:23:18.967Z,42.75
2023-07-25T07:28:21.039Z,42.70
2023-07-25T07:33:23.139Z,42.35
2023-07-25T07:38:25.074Z,42.40
2023-07-25T07:43:27.135Z,42.49
2023-07-25T07:48:29.227Z,42.03
2023-07-25T07:53:31.487Z,42.09
2023-07-25T07:58:33.565Z,41.96
2023-07-25T08:03:35.987Z,41.41
2023-07-25T08:08:38.370Z,41.94
2023-07-25T08:13:41.744Z,40.76
2023-07-25T08:18:43.850Z,40.82
2023-07-25T08:23:51.603Z,41.34
2023-07-25T08:29:03.779Z,39.10
2023-07-25T08:34:08.999Z,40.90
2023-07-25T08:39:15.809Z,39.20
2023-07-25T08:44:21.794Z,40.18
2023-07-25T08:49:31.702Z,40.79
2023-07-25T08:54:38.571Z,38.75
2023-07-25T08:59:43.946Z,41.08
2023-07-25T09:04:55.745Z,40.29
2023-07-25T09:10:02.136Z,40.40
2023-07-25T09:15:04.710Z,41.11
2023-07-25T09:20:08.714Z,40.80
2023-07-25T09:25:15.789Z,40.32
2023-07-25T09:30:20.312Z,40.73
2023-07-25T09:35:24.562Z,40.36
2023-07-25T09:40:26.699Z,40.84
2023-07-25T09:45:41.741Z,39.67
2023-07-25T09:50:45.778Z,38.72
2023-07-25T09:55:50.644Z,40.27
2023-07-25T10:00:57.512Z,40.53
2023-07-25T10:06:00.629Z,39.11
2023-07-25T10:11:11.165Z,37.82
2023-07-25T10:16:15.866Z,37.31
2023-07-25T10:21:18.970Z,36.80
2023-07-25T10:26:21.835Z,39.20
2023-07-25T10:31:37.082Z,40.57
2023-07-25T10:36:39.174Z,41.63
2023-07-25T10:41:46.214Z,40.92
2023-07-25T10:46:48.851Z,41.40
2023-07-25T10:51:58.111Z,41.85
2023-07-25T10:57:22.298Z,40.53
2023-07-25T11:02:38.896Z,39.51
2023-07-25T11:07:55.397Z,40.17
2023-07-25T11:13:07.225Z,39.72
2023-07-25T11:18:11.097Z,40.66
2023-07-25T11:23:13.621Z,40.18
2023-07-25T11:28:15.858Z,39.16
2023-07-25T11:33:18.147Z,38.03
2023-07-25T11:38:20.357Z,38.76
2023-07-25T11:43:25.714Z,39.33
2023-07-25T11:48:30.296Z,38.50
2023-07-25T11:53:36.792Z,38.88
2023-07-25T11:58:38.895Z,38.61
2023-07-25T12:03:51.202Z,37.13
2023-07-25T12:08:58.757Z,37.50
2023-07-25T12:14:19.420Z,37.07
2023-07-25T12:19:53.298Z,37.18
2023-07-25T12:25:08.567Z,34.20
2023-07-25T12:35:59.381Z,35.09
2023-07-25T12:41:17.421Z,35.45
2023-07-25T12:46:25.566Z,38.02
2023-07-25T12:51:41.592Z,39.40
2023-07-25T12:56:48.424Z,36.63
2023-07-25T13:02:11.228Z,34.41
2023-07-25T13:07:18.946Z,34.67
2023-07-25T13:12:29.324Z,34.54
2023-07-25T13:17:50.210Z,34.07
2023-07-25T13:22:59.780Z,34.51
2023-07-25T13:33:22.344Z,36.25
2023-07-25T13:38:29.991Z,35.92
2023-07-25T13:43:32.346Z,35.98
2023-07-25T13:48:34.548Z,34.49
2023-07-25T13:53:40.627Z,33.20
2023-07-25T13:58:43.382Z,33.86
2023-07-25T14:03:47.915Z,32.20
2023-07-25T14:08:50.189Z,32.37
2023-07-25T14:13:58.572Z,31.32
2023-07-25T14:24:24.648Z,31.66
2023-07-25T14:29:26.722Z,32.69
2023-07-25T14:34:35.610Z,31.32
2023-07-25T14:39:44.168Z,34.34
2023-07-25T14:44:49.656Z,35.09
2023-07-25T14:49:53.951Z,35.68
2023-07-25T14:54:59.428Z,35.77
2023-07-25T15:00:13.024Z,36.91
2023-07-25T15:05:14.920Z,35.28
2023-07-25T15:10:19.419Z,35.06
2023-07-25T15:15:33.275Z,34.64
2023-07-25T15:20:36.097Z,33.82
2023-07-25T15:25:38.191Z,33.53
2023-07-25T15:30:40.179Z,35.47
2023-07-25T15:35:46.107Z,35.32
2023-07-25T15:40:50.138Z,37.49
2023-07-25T15:45:52.607Z,38.19
2023-07-25T15:51:04.933Z,37.91
2023-07-25T15:56:09.343Z,37.85
2023-07-25T16:01:11.575Z,37.92
2023-07-25T16:06:14.070Z,39.38
2023-07-25T16:11:16.177Z,39.38
2023-07-25T16:16:20.634Z,38.70
2023-07-25T16:21:39.078Z,36.07
2023-07-25T16:26:44.401Z,36.43
2023-07-25T16:31:50.982Z,36.13
2023-07-25T16:36:53.937Z,36.97
2023-07-25T16:41:59.548Z,38.13
2023-07-25T16:47:02.826Z,39.71
2023-07-25T16:52:06.360Z,36.49
2023-07-25T16:57:13.936Z,33.95
2023-07-25T17:02:15.936Z,34.64
2023-07-25T17:07:22.535Z,34.81
2023-07-25T17:12:27.273Z,34.15
2023-07-25T17:17:33.073Z,34.65
2023-07-25T17:22:37.949Z,35.49
2023-07-25T17:27:41.854Z,34.62
2023-07-25T17:33:04.599Z,30.12
2023-07-25T17:38:10.829Z,31.87
2023-07-25T17:43:19.978Z,28.88
2023-07-25T17:48:32.919Z,29.67
2023-07-25T17:53:49.501Z,30.54
2023-07-25T17:58:57.087Z,30.00
2023-07-25T18:03:59.697Z,29.92
2023-07-25T18:09:13.217Z,30.35
2023-07-25T18:14:21.301Z,30.41
2023-07-25T18:19:27.245Z,30.03
2023-07-25T18:24:34.037Z,29.37
2023-07-25T18:29:53.148Z,28.43
2023-07-25T18:35:20.668Z,29.71
2023-07-25T18:40:22.845Z,29.72
2023-07-25T18:45:33.992Z,29.28
2023-07-25T18:50:37.775Z,34.89
2023-07-25T18:55:42.576Z,38.55
2023-07-25T19:00:50.400Z,44.28
2023-07-25T19:05:55.328Z,44.30
2023-07-25T19:10:59.732Z,45.98
2023-07-25T19:16:05.330Z,49.17
2023-07-25T19:21:11.561Z,50.81
2023-07-25T19:26:14.929Z,53.56
2023-07-25T19:31:17.101Z,54.35
2023-07-25T19:36:24.449Z,55.05
2023-07-25T19:41:26.673Z,57.81
2023-07-25T19:46:31.263Z,57.97
2023-07-25T19:51:39.654Z,58.64
2023-07-25T19:56:41.752Z,58.56
2023-07-25T20:01:44.228Z,58.72
2023-07-25T20:06:47.641Z,60.69
2023-07-25T20:11:49.726Z,60.07
2023-07-25T20:16:51.979Z,60.37
2023-07-25T20:21:54.809Z,60.59
2023-07-25T20:27:00.896Z,61.92
2023-07-25T20:32:07.269Z,62.24
2023-07-25T20:37:11.634Z,62.54
2023-07-25T20:42:32.052Z,62.72
2023-07-25T20:47:43.501Z,61.77
2023-07-25T20:52:57.347Z,63.79
2023-07-25T20:58:10.159Z,63.44
2023-07-25T21:03:21.828Z,61.94
2023-07-25T21:08:26.813Z,62.18
2023-07-25T21:14:02.137Z,63.02
2023-07-25T21:19:13.671Z,61.64
2023-07-25T21:24:32.740Z,60.63
2023-07-25T21:29:46.932Z,60.37
2023-07-25T21:34:51.034Z,59.55
2023-07-25T21:39:55.893Z,59.59
2023-07-25T21:45:06.607Z,60.05
2023-07-25T21:50:13.238Z,59.40
2023-07-25T21:55:40.056Z,60.16
2023-07-25T22:00:49.561Z,59.38
2023-07-25T22:06:13.953Z,59.43
2023-07-25T22:11:23.258Z,59.75
2023-07-25T22:16:33.550Z,60.20
2023-07-25T22:21:38.476Z,59.71
2023-07-25T22:26:50.914Z,60.59
2023-07-25T22:32:10.532Z,60.30
2023-07-25T22:37:16.001Z,60.29
2023-07-25T22:42:22.470Z,60.48
2023-07-25T22:47:43.827Z,60.72
2023-07-25T22:53:13.567Z,59.66
2023-07-25T22:58:17.008Z,58.36
2023-07-25T23:03:51.510Z,58.52
2023-07-25T23:09:01.235Z,57.52
2023-07-25T23:14:15.504Z,57.74
2023-07-25T23:24:43.198Z,57.24
2023-07-25T23:29:58.295Z,56.93
2023-07-25T23:35:17.140Z,56.89
2023-07-25T23:40:29.670Z,56.42
2023-07-25T23:45:33.972Z,56.59
2023-07-25T23:50:44.419Z,56.38
2023-07-25T23:55:57.593Z,56.51
